WMT4DE LROP-DTMB
Flight info
| Callsign | WMT4DE |
|---|---|
| Flight time | N/A |
| Altitude | 35000 |
| Route | LROP/08L POLUN1K POLUN DCT TIMUR DCT LUKOV DCT LETNI DCT DOBAR DCT GOKEL/N0441F390 DCT LODPA DCT PIVOP DCT TUPAL/N0434F380 UL869 CBN/N0355F230 G727 ATLEL ATLEL1R DTMB/O7 |
| Aircraft | A320/M-V/N |
Departure
| Time | 2026-04-30 13:54 |
|---|---|
| Airport | Bucharest Henri Coandă International Airport (LROP) |
Arrival
| Time | N/A |
|---|---|
| Airport | Monastir Habib Bourguiba International Airport (DTMB) |
| Time | Latitude | Longitude | Altitude | Speed | Heading |
|---|---|---|---|---|---|
| 2026-04-30 13:34 | 44.56928 | 26.09398 | 322 ft | 0 kts | 174° |
| 2026-04-30 13:46 | 44.56914 | 26.09401 | 319 ft | 6 kts | 174° |
| 2026-04-30 13:46 | 44.56890 | 26.09391 | 320 ft | 3 kts | 219° |
| 2026-04-30 13:46 | 44.56875 | 26.09329 | 321 ft | 9 kts | 260° |
| 2026-04-30 13:46 | 44.56867 | 26.09242 | 322 ft | 9 kts | 265° |
| 2026-04-30 13:47 | 44.56861 | 26.09159 | 319 ft | 8 kts | 262° |
| 2026-04-30 13:47 | 44.56855 | 26.09087 | 322 ft | 7 kts | 263° |
| 2026-04-30 13:47 | 44.56847 | 26.09017 | 320 ft | 9 kts | 261° |
| 2026-04-30 13:47 | 44.56853 | 26.08980 | 322 ft | 1 kts | 312° |
| 2026-04-30 13:48 | 44.56848 | 26.08943 | 320 ft | 7 kts | 257° |
| 2026-04-30 13:48 | 44.56840 | 26.08873 | 321 ft | 7 kts | 264° |
| 2026-04-30 13:48 | 44.56834 | 26.08804 | 322 ft | 7 kts | 263° |
| 2026-04-30 13:48 | 44.56829 | 26.08741 | 321 ft | 6 kts | 263° |
| 2026-04-30 13:49 | 44.56824 | 26.08684 | 321 ft | 7 kts | 265° |
| 2026-04-30 13:49 | 44.56825 | 26.08591 | 322 ft | 8 kts | 303° |
| 2026-04-30 13:49 | 44.56878 | 26.08559 | 322 ft | 9 kts | 353° |
| 2026-04-30 13:49 | 44.56942 | 26.08547 | 321 ft | 12 kts | 352° |
| 2026-04-30 13:50 | 44.57053 | 26.08530 | 320 ft | 20 kts | 353° |
| 2026-04-30 13:50 | 44.57316 | 26.08493 | 321 ft | 16 kts | 352° |
| 2026-04-30 13:50 | 44.57418 | 26.08478 | 321 ft | 13 kts | 354° |
| 2026-04-30 13:51 | 44.57505 | 26.08464 | 321 ft | 12 kts | 353° |
| 2026-04-30 13:51 | 44.57581 | 26.08453 | 321 ft | 11 kts | 354° |
| 2026-04-30 13:51 | 44.57648 | 26.08471 | 321 ft | 10 kts | 42° |
| 2026-04-30 13:51 | 44.57666 | 26.08516 | 322 ft | 0 kts | 83° |
| 2026-04-30 13:52 | 44.57667 | 26.08525 | 323 ft | 0 kts | 83° |
| 2026-04-30 13:52 | 44.57667 | 26.08528 | 322 ft | 0 kts | 83° |
| 2026-04-30 13:53 | 44.57670 | 26.08560 | 323 ft | 20 kts | 83° |
| 2026-04-30 13:53 | 44.57725 | 26.09159 | 321 ft | 99 kts | 85° |
| 2026-04-30 13:53 | 44.57787 | 26.10369 | 553 ft | 141 kts | 82° |
| 2026-04-30 13:54 | 44.57859 | 26.11736 | 1104 ft | 141 kts | 81° |
| 2026-04-30 13:54 | 44.57967 | 26.13173 | 1628 ft | 152 kts | 80° |
| 2026-04-30 13:54 | 44.58093 | 26.14732 | 2158 ft | 171 kts | 79° |
| 2026-04-30 13:54 | 44.58233 | 26.16472 | 2677 ft | 191 kts | 81° |
| 2026-04-30 13:55 | 44.58391 | 26.18435 | 3310 ft | 211 kts | 82° |
| 2026-04-30 13:55 | 44.58557 | 26.20566 | 3966 ft | 231 kts | 82° |
| 2026-04-30 13:55 | 44.58737 | 26.22905 | 4681 ft | 246 kts | 82° |
| 2026-04-30 13:55 | 44.58920 | 26.25301 | 5688 ft | 250 kts | 82° |
| 2026-04-30 13:56 | 44.59106 | 26.27751 | 6678 ft | 255 kts | 83° |
| 2026-04-30 13:56 | 44.59095 | 26.30258 | 7527 ft | 264 kts | 102° |
| 2026-04-30 13:56 | 44.58281 | 26.32594 | 8398 ft | 273 kts | 129° |
| 2026-04-30 13:56 | 44.56787 | 26.34194 | 9297 ft | 278 kts | 156° |
| 2026-04-30 13:57 | 44.54913 | 26.34764 | 10293 ft | 278 kts | 177° |
| 2026-04-30 13:57 | 44.52937 | 26.34806 | 10947 ft | 293 kts | 181° |
| 2026-04-30 13:57 | 44.50833 | 26.34817 | 11300 ft | 315 kts | 180° |
| 2026-04-30 13:57 | 44.48576 | 26.34951 | 11829 ft | 329 kts | 178° |
| 2026-04-30 13:58 | 44.46281 | 26.35201 | 12676 ft | 332 kts | 176° |
| 2026-04-30 13:58 | 44.41611 | 26.35797 | 14257 ft | 341 kts | 182° |
| 2026-04-30 13:58 | 44.39252 | 26.35414 | 14941 ft | 342 kts | 197° |
| 2026-04-30 13:59 | 44.37309 | 26.34218 | 15607 ft | 340 kts | 216° |
| 2026-04-30 13:59 | 44.35608 | 26.31928 | 16440 ft | 336 kts | 236° |
| 2026-04-30 13:59 | 44.34522 | 26.29049 | 17291 ft | 335 kts | 246° |
| 2026-04-30 13:59 | 44.33622 | 26.26063 | 18153 ft | 334 kts | 249° |
| 2026-04-30 14:00 | 44.32753 | 26.23068 | 18947 ft | 333 kts | 249° |
| 2026-04-30 14:00 | 44.30966 | 26.17058 | 20310 ft | 336 kts | 247° |
| 2026-04-30 14:00 | 44.30047 | 26.14053 | 20981 ft | 337 kts | 247° |
| 2026-04-30 14:01 | 44.29128 | 26.11078 | 21632 ft | 339 kts | 246° |
| 2026-04-30 14:01 | 44.28181 | 26.08023 | 22296 ft | 340 kts | 246° |
| 2026-04-30 14:01 | 44.27233 | 26.04975 | 22952 ft | 342 kts | 246° |
| 2026-04-30 14:01 | 44.26285 | 26.01931 | 23598 ft | 344 kts | 246° |
| 2026-04-30 14:02 | 44.25329 | 25.98863 | 24164 ft | 345 kts | 246° |
| 2026-04-30 14:02 | 44.24375 | 25.95805 | 24746 ft | 345 kts | 246° |
| 2026-04-30 14:02 | 44.23410 | 25.92722 | 25335 ft | 345 kts | 246° |
| 2026-04-30 14:02 | 44.22450 | 25.89653 | 25871 ft | 346 kts | 246° |
| 2026-04-30 14:03 | 44.21488 | 25.86582 | 26398 ft | 346 kts | 247° |
| 2026-04-30 14:03 | 44.20522 | 25.83502 | 26923 ft | 347 kts | 247° |
| 2026-04-30 14:03 | 44.19554 | 25.80418 | 27440 ft | 347 kts | 247° |
| 2026-04-30 14:03 | 44.18584 | 25.77332 | 27940 ft | 348 kts | 247° |
| 2026-04-30 14:04 | 44.17613 | 25.74248 | 28387 ft | 349 kts | 247° |
| 2026-04-30 14:04 | 44.16645 | 25.71178 | 28859 ft | 350 kts | 247° |
| 2026-04-30 14:04 | 44.15653 | 25.68035 | 29289 ft | 351 kts | 247° |
| 2026-04-30 14:04 | 44.14670 | 25.64925 | 29740 ft | 351 kts | 247° |
| 2026-04-30 14:05 | 44.13697 | 25.61848 | 30147 ft | 352 kts | 247° |
| 2026-04-30 14:05 | 44.12710 | 25.58733 | 30509 ft | 354 kts | 247° |
| 2026-04-30 14:05 | 44.11710 | 25.55579 | 30735 ft | 358 kts | 248° |
| 2026-04-30 14:05 | 44.10696 | 25.52385 | 30965 ft | 362 kts | 248° |
| 2026-04-30 14:06 | 44.09676 | 25.49175 | 31221 ft | 365 kts | 248° |
| 2026-04-30 14:06 | 44.07599 | 25.42656 | 31778 ft | 371 kts | 248° |
| 2026-04-30 14:07 | 44.05499 | 25.36078 | 32392 ft | 374 kts | 248° |
| 2026-04-30 14:07 | 44.04442 | 25.32775 | 32693 ft | 376 kts | 248° |
| 2026-04-30 14:07 | 44.03388 | 25.29484 | 32977 ft | 377 kts | 248° |
| 2026-04-30 14:08 | 44.01244 | 25.22804 | 33575 ft | 380 kts | 248° |
| 2026-04-30 14:08 | 44.00162 | 25.19439 | 33861 ft | 382 kts | 248° |
| 2026-04-30 14:08 | 43.97990 | 25.12696 | 34382 ft | 384 kts | 249° |
| 2026-04-30 14:09 | 43.96892 | 25.09293 | 34590 ft | 386 kts | 249° |
| 2026-04-30 14:09 | 43.95795 | 25.05899 | 34785 ft | 387 kts | 249° |
| 2026-04-30 14:09 | 43.93579 | 24.99049 | 35182 ft | 390 kts | 248° |
| 2026-04-30 14:10 | 43.92466 | 24.95617 | 35293 ft | 391 kts | 248° |
| 2026-04-30 14:10 | 43.90233 | 24.88749 | 35297 ft | 389 kts | 248° |
| 2026-04-30 14:11 | 43.88021 | 24.81958 | 35296 ft | 390 kts | 248° |
| 2026-04-30 14:11 | 43.85788 | 24.75124 | 35301 ft | 390 kts | 248° |
| 2026-04-30 14:12 | 43.83540 | 24.68258 | 35299 ft | 390 kts | 248° |
| 2026-04-30 14:12 | 43.81236 | 24.61467 | 35296 ft | 392 kts | 242° |
| 2026-04-30 14:13 | 43.77419 | 24.55925 | 35296 ft | 406 kts | 224° |
| 2026-04-30 14:13 | 43.72960 | 24.51146 | 35299 ft | 405 kts | 225° |
| 2026-04-30 14:14 | 43.68681 | 24.46189 | 35301 ft | 403 kts | 226° |
| 2026-04-30 14:14 | 43.64462 | 24.41110 | 35299 ft | 402 kts | 227° |
| 2026-04-30 14:15 | 43.60249 | 24.36021 | 35296 ft | 402 kts | 227° |
| 2026-04-30 14:15 | 43.56044 | 24.30955 | 35294 ft | 401 kts | 227° |
| 2026-04-30 14:16 | 43.51837 | 24.25900 | 35295 ft | 401 kts | 227° |
| 2026-04-30 14:16 | 43.47640 | 24.20867 | 35300 ft | 401 kts | 227° |
| 2026-04-30 14:17 | 43.43425 | 24.15822 | 35295 ft | 400 kts | 227° |
| 2026-04-30 14:17 | 43.39226 | 24.10805 | 35296 ft | 400 kts | 227° |
| 2026-04-30 14:18 | 43.35049 | 24.05825 | 35290 ft | 400 kts | 227° |
| 2026-04-30 14:18 | 43.28719 | 23.98296 | 35288 ft | 399 kts | 227° |
| 2026-04-30 14:19 | 43.22420 | 23.90825 | 35281 ft | 399 kts | 227° |
| 2026-04-30 14:20 | 43.18218 | 23.85853 | 35272 ft | 399 kts | 227° |
| 2026-04-30 14:20 | 43.11915 | 23.78413 | 35272 ft | 398 kts | 227° |
| 2026-04-30 14:21 | 43.07729 | 23.73481 | 35272 ft | 399 kts | 227° |
| 2026-04-30 14:22 | 43.01429 | 23.66082 | 35257 ft | 398 kts | 227° |
| 2026-04-30 14:22 | 42.95163 | 23.58742 | 35255 ft | 398 kts | 227° |
| 2026-04-30 14:23 | 42.86726 | 23.48887 | 35240 ft | 398 kts | 227° |
| 2026-04-30 14:24 | 42.81128 | 23.42372 | 35237 ft | 398 kts | 227° |
| 2026-04-30 14:25 | 42.72705 | 23.32596 | 35236 ft | 398 kts | 227° |
| 2026-04-30 14:26 | 42.66381 | 23.25280 | 35232 ft | 397 kts | 227° |
| 2026-04-30 14:27 | 42.60088 | 23.18020 | 35230 ft | 397 kts | 227° |
| 2026-04-30 14:27 | 42.55878 | 23.13175 | 35234 ft | 397 kts | 227° |
| 2026-04-30 14:28 | 42.49530 | 23.05883 | 35225 ft | 397 kts | 227° |
| 2026-04-30 14:28 | 42.45305 | 23.01043 | 35223 ft | 397 kts | 227° |
| 2026-04-30 14:29 | 42.36867 | 22.91402 | 35221 ft | 398 kts | 227° |
| 2026-04-30 14:31 | 42.26309 | 22.79389 | 35211 ft | 398 kts | 227° |
| 2026-04-30 14:31 | 42.19952 | 22.72180 | 35204 ft | 398 kts | 227° |
| 2026-04-30 14:32 | 42.13578 | 22.64970 | 35204 ft | 399 kts | 228° |
| 2026-04-30 14:33 | 42.09837 | 22.59619 | 35200 ft | 387 kts | 240° |
| 2026-04-30 14:33 | 42.06065 | 22.50229 | 35194 ft | 381 kts | 249° |
| 2026-04-30 14:34 | 42.03814 | 22.43764 | 35190 ft | 382 kts | 249° |
| 2026-04-30 14:34 | 42.01548 | 22.37310 | 35188 ft | 382 kts | 249° |
| 2026-04-30 14:35 | 41.98138 | 22.27628 | 35190 ft | 382 kts | 249° |
| 2026-04-30 14:36 | 41.95858 | 22.21172 | 35188 ft | 382 kts | 249° |
| 2026-04-30 14:36 | 41.93589 | 22.14761 | 35189 ft | 383 kts | 249° |
| 2026-04-30 14:37 | 41.91300 | 22.08306 | 35191 ft | 383 kts | 249° |
| 2026-04-30 14:37 | 41.89010 | 22.01866 | 35199 ft | 384 kts | 249° |
| 2026-04-30 14:38 | 41.86704 | 21.95394 | 35213 ft | 384 kts | 249° |
| 2026-04-30 14:38 | 41.84395 | 21.88932 | 35219 ft | 384 kts | 249° |
| 2026-04-30 14:39 | 41.82078 | 21.82461 | 35224 ft | 385 kts | 249° |
| 2026-04-30 14:39 | 41.79756 | 21.75991 | 35231 ft | 385 kts | 249° |
| 2026-04-30 14:40 | 41.76267 | 21.66295 | 35232 ft | 385 kts | 249° |
| 2026-04-30 14:40 | 41.73946 | 21.59865 | 35228 ft | 386 kts | 249° |
| 2026-04-30 14:41 | 41.71602 | 21.53386 | 35225 ft | 385 kts | 249° |
| 2026-04-30 14:41 | 41.69258 | 21.46920 | 35206 ft | 387 kts | 249° |
| 2026-04-30 14:42 | 41.66907 | 21.40449 | 35219 ft | 387 kts | 248° |
| 2026-04-30 14:42 | 41.64546 | 21.33968 | 35210 ft | 387 kts | 248° |
| 2026-04-30 14:43 | 41.62199 | 21.27544 | 35208 ft | 387 kts | 248° |
| 2026-04-30 14:43 | 41.59830 | 21.21067 | 35205 ft | 388 kts | 248° |
| 2026-04-30 14:44 | 41.57460 | 21.14602 | 35200 ft | 388 kts | 248° |
| 2026-04-30 14:44 | 41.55079 | 21.08126 | 35195 ft | 390 kts | 248° |
| 2026-04-30 14:45 | 41.52694 | 21.01651 | 35186 ft | 389 kts | 248° |
| 2026-04-30 14:45 | 41.50319 | 20.95217 | 35170 ft | 389 kts | 248° |
| 2026-04-30 14:46 | 41.47928 | 20.88754 | 35158 ft | 389 kts | 248° |
| 2026-04-30 14:46 | 41.45527 | 20.82281 | 35153 ft | 390 kts | 248° |
| 2026-04-30 14:47 | 41.43132 | 20.75842 | 35143 ft | 390 kts | 248° |
| 2026-04-30 14:47 | 41.40707 | 20.69330 | 35135 ft | 390 kts | 248° |
| 2026-04-30 14:48 | 41.38301 | 20.62886 | 35127 ft | 391 kts | 248° |
| 2026-04-30 14:48 | 41.35878 | 20.56412 | 35124 ft | 391 kts | 248° |
| 2026-04-30 14:49 | 41.33429 | 20.49941 | 35121 ft | 393 kts | 246° |
| 2026-04-30 14:49 | 41.30403 | 20.43839 | 35123 ft | 398 kts | 238° |
| 2026-04-30 14:50 | 41.25913 | 20.34710 | 35106 ft | 394 kts | 245° |
| 2026-04-30 14:51 | 41.21656 | 20.25345 | 35085 ft | 396 kts | 243° |
| 2026-04-30 14:52 | 41.17184 | 20.16090 | 35079 ft | 398 kts | 242° |
| 2026-04-30 14:52 | 41.12686 | 20.06832 | 35063 ft | 398 kts | 242° |
| 2026-04-30 14:53 | 41.08175 | 19.97569 | 35057 ft | 400 kts | 242° |
| 2026-04-30 14:54 | 41.02157 | 19.85253 | 35057 ft | 400 kts | 242° |
| 2026-04-30 14:55 | 40.97609 | 19.75979 | 35032 ft | 401 kts | 242° |
| 2026-04-30 14:56 | 40.91516 | 19.63601 | 35039 ft | 402 kts | 242° |
| 2026-04-30 14:57 | 40.86950 | 19.54352 | 35045 ft | 403 kts | 242° |
| 2026-04-30 14:58 | 40.80804 | 19.41951 | 35043 ft | 404 kts | 242° |
| 2026-04-30 14:58 | 40.76175 | 19.32643 | 35040 ft | 405 kts | 242° |
| 2026-04-30 15:00 | 40.68447 | 19.17168 | 35042 ft | 406 kts | 242° |
| 2026-04-30 15:01 | 40.62212 | 19.04736 | 35049 ft | 407 kts | 242° |
| 2026-04-30 15:01 | 40.57495 | 18.95429 | 35054 ft | 408 kts | 241° |
| 2026-04-30 15:02 | 40.54318 | 18.89301 | 35053 ft | 409 kts | 241° |
| 2026-04-30 15:03 | 40.46325 | 18.73864 | 35062 ft | 410 kts | 241° |
| 2026-04-30 15:04 | 40.38298 | 18.58434 | 35070 ft | 410 kts | 241° |
| 2026-04-30 15:06 | 40.30229 | 18.42996 | 35078 ft | 411 kts | 241° |
| 2026-04-30 15:07 | 40.23759 | 18.30676 | 35075 ft | 412 kts | 240° |
| 2026-04-30 15:08 | 40.17243 | 18.18315 | 35074 ft | 413 kts | 240° |
| 2026-04-30 15:09 | 40.09079 | 18.02896 | 35071 ft | 414 kts | 240° |
| 2026-04-30 15:10 | 40.02500 | 17.90526 | 35066 ft | 415 kts | 240° |
| 2026-04-30 15:11 | 39.92610 | 17.72021 | 35067 ft | 416 kts | 240° |
| 2026-04-30 15:13 | 39.84304 | 17.56563 | 35073 ft | 417 kts | 240° |
| 2026-04-30 15:14 | 39.72637 | 17.34976 | 35083 ft | 418 kts | 240° |
| 2026-04-30 15:17 | 39.57549 | 17.07280 | 35110 ft | 419 kts | 240° |
| 2026-04-30 15:19 | 39.44002 | 16.82616 | 35136 ft | 420 kts | 240° |